CheckWX is a tool to help pilots better visualize weather data.  It is not intended as a substitute for an official pre-flight weather briefing.

18:07:22 UTC

K7BM METAR
Cottonwood Pass Airport
Cottonwood Pass, Colorado, USA
Current

37 mins ago

K7BM 251730Z AUTO 26014G24KT 240V300 10SM CLR 00/M11 A3014 RMK AO2
Observed
Jan-25 @ 17:30 UTC
Wind
  • 260° at 14 KTS
  • Gusting to 24 KTS
Visibility
10 SM
Flight Rules
VFR
Cloud Levels
  • Clear skies
Temperature
C / 32°F
Dewpoint
-11°C / 12°F
Humidity
44%
Altimeter
30.14" Hg
Pressure
1020.62 hPa
Previous

55 mins ago

K7BM 251712Z AUTO 25019G23KT 10SM CLR 00/M11 A3013 RMK AO2
Observed
Jan-25 @ 17:12 UTC
Wind
  • 250° at 19 KTS
  • Gusting to 23 KTS
Visibility
10 SM
Flight Rules
VFR
Cloud Levels
  • Clear skies
Temperature
C / 32°F
Dewpoint
-11°C / 12°F
Humidity
44%
Altimeter
30.13" Hg
Pressure
1020.32 hPa
Previous

1 hour ago

K7BM 251648Z AUTO 28011G25KT 260V330 10SM CLR M01/M11 A3011 RMK AO2
Observed
Jan-25 @ 16:48 UTC
Wind
  • 280° at 11 KTS
  • Gusting to 25 KTS
Visibility
10 SM
Flight Rules
VFR
Cloud Levels
  • Clear skies
Temperature
-1°C / 30°F
Dewpoint
-11°C / 12°F
Humidity
47%
Altimeter
30.11" Hg
Pressure
1019.62 hPa